createdAt,value
2024-01-03T00:00:03.944Z,8.00
2024-01-03T00:02:33.181Z,8.11
2024-01-03T00:05:00.996Z,7.89
2024-01-03T00:07:28.735Z,7.87
2024-01-03T00:09:57.211Z,7.90
2024-01-03T00:12:26.118Z,7.92
2024-01-03T00:14:54.100Z,7.99
2024-01-03T00:17:22.007Z,7.97
2024-01-03T00:19:55.348Z,7.96
2024-01-03T00:22:29.419Z,7.96
2024-01-03T00:25:01.461Z,7.94
2024-01-03T00:27:30.696Z,7.95
2024-01-03T00:30:07.707Z,7.96
2024-01-03T00:32:41.894Z,7.96
2024-01-03T00:35:13.756Z,7.94
2024-01-03T00:37:44.969Z,7.98
2024-01-03T00:40:52.449Z,8.08
2024-01-03T00:43:21.396Z,8.15
2024-01-03T00:45:50.395Z,8.20
2024-01-03T00:48:19.641Z,8.22
2024-01-03T00:50:47.790Z,8.18
2024-01-03T00:53:17.157Z,8.14
2024-01-03T00:55:45.080Z,8.26
2024-01-03T00:58:12.926Z,8.31
2024-01-03T01:00:42.528Z,8.34
2024-01-03T01:03:10.751Z,8.27
2024-01-03T01:05:38.356Z,8.29
2024-01-03T01:08:07.290Z,8.26
2024-01-03T01:10:34.993Z,8.31
2024-01-03T01:13:02.492Z,8.36
2024-01-03T01:15:30.309Z,8.32
2024-01-03T01:18:00.392Z,8.26
2024-01-03T01:20:31.491Z,8.23
2024-01-03T01:22:59.218Z,8.21
2024-01-03T01:25:26.692Z,8.33
2024-01-03T01:27:54.370Z,8.16
2024-01-03T01:30:22.630Z,8.20
2024-01-03T01:32:51.616Z,8.16
2024-01-03T01:35:20.744Z,8.34
2024-01-03T01:37:49.578Z,8.41
2024-01-03T01:40:17.341Z,8.25
2024-01-03T01:42:46.679Z,8.37
2024-01-03T01:45:14.970Z,8.35
2024-01-03T01:47:44.659Z,8.39
2024-01-03T01:50:12.753Z,8.31
2024-01-03T01:52:41.849Z,8.39
2024-01-03T01:55:11.072Z,8.41
2024-01-03T01:57:40.232Z,8.44
2024-01-03T02:00:10.632Z,8.48
2024-01-03T02:02:43.673Z,8.50
2024-01-03T02:05:12.321Z,8.55
2024-01-03T02:07:40.209Z,8.51
2024-01-03T02:10:10.868Z,8.54
2024-01-03T02:12:39.102Z,8.49
2024-01-03T02:15:07.654Z,8.47
2024-01-03T02:17:38.709Z,8.39
2024-01-03T02:20:07.457Z,8.42
2024-01-03T02:22:36.269Z,8.45
2024-01-03T02:25:05.456Z,8.35
2024-01-03T02:27:33.417Z,8.35
2024-01-03T02:30:01.025Z,8.36
2024-01-03T02:32:28.679Z,8.24
2024-01-03T02:34:56.234Z,8.27
2024-01-03T02:37:25.329Z,8.33
2024-01-03T02:39:54.283Z,8.38
2024-01-03T02:42:21.821Z,8.39
2024-01-03T02:44:49.296Z,8.47
2024-01-03T02:47:16.869Z,8.49
2024-01-03T02:49:44.472Z,8.50
2024-01-03T02:52:12.084Z,8.42
2024-01-03T02:54:39.594Z,8.47
2024-01-03T02:57:08.439Z,8.50
2024-01-03T02:59:35.986Z,8.48
2024-01-03T03:02:03.541Z,8.54
2024-01-03T03:04:31.253Z,8.50
2024-01-03T03:06:58.780Z,8.54
2024-01-03T03:09:26.582Z,8.46
2024-01-03T03:11:54.214Z,8.49
2024-01-03T03:14:24.122Z,8.56
2024-01-03T03:16:53.793Z,8.64
2024-01-03T03:19:21.601Z,8.66
2024-01-03T03:21:49.207Z,8.61
2024-01-03T03:24:17.197Z,8.55
2024-01-03T03:26:44.765Z,8.60
2024-01-03T03:29:12.358Z,8.61
2024-01-03T03:31:41.180Z,8.65
2024-01-03T03:34:27.263Z,8.63
2024-01-03T03:36:56.159Z,8.58
2024-01-03T03:39:23.688Z,8.52
2024-01-03T03:41:51.264Z,8.43
2024-01-03T03:44:19.161Z,8.44
2024-01-03T03:46:48.016Z,8.34
2024-01-03T03:49:15.802Z,8.26
2024-01-03T03:51:43.345Z,8.23
2024-01-03T03:54:10.832Z,8.33
2024-01-03T03:56:38.401Z,8.33
2024-01-03T03:59:08.203Z,8.33
2024-01-03T04:01:35.779Z,8.33
2024-01-03T04:04:05.069Z,8.45
2024-01-03T04:06:32.673Z,8.49
2024-01-03T04:09:00.272Z,8.50
2024-01-03T04:11:27.824Z,8.44
2024-01-03T04:13:55.443Z,8.31
2024-01-03T04:16:22.995Z,8.23
2024-01-03T04:18:50.636Z,8.14
2024-01-03T04:21:19.670Z,8.18
2024-01-03T04:23:47.172Z,8.13
2024-01-03T04:26:14.830Z,8.10
2024-01-03T04:28:42.338Z,8.05
2024-01-03T04:31:09.959Z,8.05
2024-01-03T04:33:37.888Z,8.00
2024-01-03T04:36:05.857Z,7.93
2024-01-03T04:38:34.807Z,7.95
2024-01-03T04:41:02.318Z,8.00
2024-01-03T04:43:29.948Z,8.00
2024-01-03T04:45:57.751Z,8.01
2024-01-03T04:48:25.297Z,7.97
2024-01-03T04:50:53.088Z,7.95
2024-01-03T04:53:20.705Z,7.98
2024-01-03T04:55:49.620Z,7.99
2024-01-03T04:58:17.097Z,7.96
2024-01-03T05:00:44.649Z,7.98
2024-01-03T05:03:13.049Z,8.12
2024-01-03T05:05:40.897Z,8.07
2024-01-03T05:08:09.033Z,7.96
2024-01-03T05:10:36.692Z,8.05
2024-01-03T05:13:05.955Z,8.06
2024-01-03T05:15:33.458Z,8.05
2024-01-03T05:18:01.462Z,8.07
2024-01-03T05:20:29.123Z,8.11
2024-01-03T05:22:56.723Z,8.10
2024-01-03T05:25:24.201Z,8.00
2024-01-03T05:27:51.719Z,7.97
2024-01-03T05:30:20.888Z,8.18
2024-01-03T05:32:48.487Z,7.87
2024-01-03T05:35:16.497Z,7.82
2024-01-03T05:37:44.062Z,7.84
2024-01-03T05:40:12.279Z,7.90
2024-01-03T05:42:39.757Z,7.97
2024-01-03T05:45:08.176Z,7.83
2024-01-03T05:47:37.055Z,7.93
2024-01-03T05:50:05.073Z,7.95
2024-01-03T05:52:32.648Z,7.93
2024-01-03T05:55:02.121Z,7.96
2024-01-03T05:57:29.716Z,7.94
2024-01-03T05:59:57.252Z,7.99
2024-01-03T06:02:24.756Z,8.05
2024-01-03T06:04:56.449Z,8.10
2024-01-03T06:07:25.671Z,8.10
2024-01-03T06:09:53.229Z,8.06
2024-01-03T06:12:20.753Z,8.05
2024-01-03T06:14:48.405Z,8.02
2024-01-03T06:17:15.992Z,8.11
2024-01-03T06:19:45.825Z,8.00
2024-01-03T06:22:15.503Z,8.08
2024-01-03T06:24:42.978Z,8.13
2024-01-03T06:27:10.578Z,8.12
2024-01-03T06:29:40.794Z,8.17
2024-01-03T06:32:09.538Z,8.21
2024-01-03T06:34:37.096Z,8.21
2024-01-03T06:37:05.056Z,8.20
2024-01-03T06:39:33.842Z,8.17
2024-01-03T06:42:01.946Z,8.22
2024-01-03T06:44:29.705Z,8.27
2024-01-03T06:46:57.300Z,8.30
2024-01-03T06:49:25.049Z,8.25
2024-01-03T06:51:52.648Z,8.33
2024-01-03T06:54:20.170Z,8.36
2024-01-03T06:56:49.060Z,8.49
2024-01-03T06:59:16.597Z,8.34
2024-01-03T07:01:44.211Z,8.33
2024-01-03T07:04:11.809Z,8.39
2024-01-03T07:06:40.487Z,8.46
2024-01-03T07:09:09.427Z,8.43
2024-01-03T07:11:37.233Z,8.41
2024-01-03T07:14:06.496Z,8.51
2024-01-03T07:16:34.357Z,8.40
2024-01-03T07:19:02.130Z,8.40
2024-01-03T07:21:29.906Z,8.39
2024-01-03T07:23:59.976Z,8.44
2024-01-03T07:26:28.173Z,8.36
2024-01-03T07:28:55.734Z,8.34
2024-01-03T07:31:24.672Z,8.38
2024-01-03T07:33:52.404Z,8.35
2024-01-03T07:36:20.760Z,8.35
2024-01-03T07:38:48.559Z,8.34
2024-01-03T07:41:20.215Z,8.36
2024-01-03T07:43:48.392Z,8.44
2024-01-03T07:46:17.342Z,8.55
2024-01-03T07:48:46.663Z,8.49
2024-01-03T07:51:14.401Z,8.44
2024-01-03T07:53:42.068Z,8.40
2024-01-03T07:56:10.368Z,8.38
2024-01-03T07:58:38.025Z,8.37
2024-01-03T08:01:06.086Z,8.36
2024-01-03T08:03:33.739Z,8.41
2024-01-03T08:06:05.226Z,8.54
2024-01-03T08:08:33.286Z,8.49
2024-01-03T08:11:03.843Z,8.51
2024-01-03T08:13:31.891Z,8.49
2024-01-03T08:15:59.447Z,8.48
2024-01-03T08:18:27.393Z,8.49
2024-01-03T08:20:55.188Z,8.49
2024-01-03T08:23:24.484Z,8.56
2024-01-03T08:25:52.077Z,8.56
2024-01-03T08:28:19.844Z,8.55
2024-01-03T08:30:47.786Z,8.66
2024-01-03T08:33:15.482Z,8.77
2024-01-03T08:35:43.238Z,8.77
2024-01-03T08:38:11.092Z,8.81
2024-01-03T08:40:40.283Z,8.85
2024-01-03T08:43:07.890Z,8.93
2024-01-03T08:45:35.462Z,8.96
2024-01-03T08:48:04.739Z,9.02
2024-01-03T08:50:32.643Z,9.00
2024-01-03T08:53:01.238Z,9.02
2024-01-03T08:55:28.870Z,9.11
2024-01-03T08:57:58.025Z,9.13
2024-01-03T09:00:26.068Z,9.00
2024-01-03T09:02:53.744Z,9.03
2024-01-03T09:05:21.967Z,9.07
2024-01-03T09:07:49.737Z,9.13
2024-01-03T09:10:17.449Z,9.09
2024-01-03T09:12:47.758Z,9.18
2024-01-03T09:15:17.272Z,9.26
2024-01-03T09:17:45.216Z,9.27
2024-01-03T09:20:13.692Z,9.29
2024-01-03T09:22:41.279Z,9.33
2024-01-03T09:25:09.798Z,9.45
2024-01-03T09:27:37.534Z,9.53
2024-01-03T09:30:06.245Z,9.54
2024-01-03T09:32:36.455Z,9.59
2024-01-03T09:35:04.590Z,9.53
2024-01-03T09:37:33.478Z,9.60
2024-01-03T09:40:01.561Z,9.64
2024-01-03T09:42:30.652Z,9.80
2024-01-03T09:44:59.544Z,9.73
2024-01-03T09:47:27.561Z,9.79
2024-01-03T09:49:56.994Z,9.81
2024-01-03T09:52:24.826Z,9.86
2024-01-03T09:54:55.148Z,10.00
2024-01-03T09:57:23.722Z,10.04
2024-01-03T09:59:51.490Z,10.04
2024-01-03T10:02:19.506Z,10.08
2024-01-03T10:04:47.371Z,10.10
2024-01-03T10:07:16.416Z,10.19
2024-01-03T10:09:45.944Z,10.21
2024-01-03T10:12:18.136Z,10.29
2024-01-03T10:14:46.022Z,10.26
2024-01-03T10:17:14.526Z,10.41
2024-01-03T10:19:42.388Z,10.36
2024-01-03T10:22:11.304Z,10.47
2024-01-03T10:24:44.901Z,10.51
2024-01-03T10:27:13.017Z,10.57
2024-01-03T10:29:41.393Z,10.70
2024-01-03T10:32:11.930Z,10.64
2024-01-03T10:34:39.925Z,10.65
2024-01-03T10:40:01.675Z,10.75
2024-01-03T10:42:29.851Z,10.77
2024-01-03T10:44:58.242Z,10.67
2024-01-03T10:47:25.983Z,10.71
2024-01-03T10:49:53.662Z,10.62
2024-01-03T10:52:27.178Z,10.68
2024-01-03T10:54:58.696Z,10.77
2024-01-03T10:57:36.517Z,10.83
2024-01-03T11:00:19.900Z,10.81
2024-01-03T11:02:55.983Z,10.93
2024-01-03T11:05:33.479Z,10.88
2024-01-03T11:08:13.321Z,10.84
2024-01-03T11:11:16.049Z,10.94
2024-01-03T11:14:36.460Z,11.06
2024-01-03T11:20:40.876Z,11.09
2024-01-03T11:23:35.572Z,11.13
2024-01-03T11:26:16.612Z,11.14
2024-01-03T11:28:52.347Z,11.08
2024-01-03T11:32:12.163Z,10.86
2024-01-03T11:34:55.419Z,10.95
2024-01-03T11:37:58.552Z,11.04
2024-01-03T11:43:12.492Z,10.89
2024-01-03T11:45:42.300Z,10.93
2024-01-03T11:48:26.726Z,11.02
2024-01-03T11:50:59.377Z,11.10
2024-01-03T11:53:28.048Z,11.02
2024-01-03T11:55:56.776Z,11.00
2024-01-03T11:58:30.155Z,10.86
2024-01-03T12:01:12.676Z,10.81
2024-01-03T12:03:41.291Z,10.88
2024-01-03T12:06:25.881Z,10.97
2024-01-03T12:08:57.554Z,10.98
2024-01-03T12:11:27.616Z,10.84
2024-01-03T12:14:02.044Z,10.88
2024-01-03T12:16:35.827Z,10.85
2024-01-03T12:19:10.716Z,10.81
2024-01-03T12:21:44.991Z,10.81
2024-01-03T12:24:26.175Z,10.72
2024-01-03T12:26:58.324Z,10.91
2024-01-03T12:29:32.507Z,10.95
2024-01-03T12:32:41.484Z,10.94
2024-01-03T12:35:20.046Z,10.86
2024-01-03T12:38:10.794Z,10.89
2024-01-03T12:40:51.809Z,10.79
2024-01-03T12:43:22.428Z,10.77
2024-01-03T12:45:57.457Z,10.82
2024-01-03T12:52:56.420Z,10.83
2024-01-03T12:55:30.713Z,10.87
2024-01-03T12:57:59.239Z,10.72
2024-01-03T13:00:29.626Z,10.69
2024-01-03T13:03:09.046Z,10.70
2024-01-03T13:06:00.079Z,10.69
2024-01-03T13:08:38.861Z,10.75
2024-01-03T13:11:11.134Z,10.77
2024-01-03T13:20:17.063Z,10.98
2024-01-03T13:22:56.407Z,11.19
2024-01-03T13:38:06.705Z,11.37
2024-01-03T13:40:41.709Z,11.33
2024-01-03T13:46:46.933Z,11.30
2024-01-03T13:49:17.225Z,11.09
2024-01-03T13:51:49.797Z,11.22
2024-01-03T13:54:40.580Z,11.04
2024-01-03T14:00:21.384Z,11.08
2024-01-03T14:02:51.146Z,11.12
2024-01-03T14:05:27.087Z,10.99
2024-01-03T14:08:02.513Z,10.95
2024-01-03T14:10:34.401Z,10.90
2024-01-03T14:13:04.901Z,10.87
2024-01-03T14:15:32.634Z,10.93
2024-01-03T14:18:05.751Z,10.86
2024-01-03T14:20:36.746Z,10.84
2024-01-03T14:23:05.841Z,10.88
2024-01-03T14:25:33.630Z,10.79
2024-01-03T14:28:02.474Z,10.79
2024-01-03T14:30:32.225Z,10.84
2024-01-03T14:33:17.556Z,10.76
2024-01-03T14:35:47.451Z,10.73
2024-01-03T14:38:21.780Z,10.64
2024-01-03T14:40:50.514Z,10.68
2024-01-03T14:46:15.151Z,10.75
2024-01-03T14:48:43.116Z,10.75
2024-01-03T14:51:13.410Z,10.73
2024-01-03T14:53:41.442Z,11.01
2024-01-03T14:56:11.858Z,10.80
2024-01-03T14:58:48.306Z,10.68
2024-01-03T15:01:22.309Z,10.73
2024-01-03T15:03:51.676Z,10.73
2024-01-03T15:06:33.911Z,10.72
2024-01-03T15:09:08.319Z,10.62
2024-01-03T15:14:29.989Z,10.46
2024-01-03T15:16:59.640Z,10.46
2024-01-03T15:19:27.462Z,10.49
2024-01-03T15:22:04.365Z,10.50
2024-01-03T15:24:45.125Z,10.57
2024-01-03T15:27:14.481Z,10.58
2024-01-03T15:29:46.573Z,10.41
2024-01-03T15:32:21.546Z,10.46
2024-01-03T15:34:49.438Z,10.33
2024-01-03T15:37:19.024Z,10.22
2024-01-03T15:39:47.647Z,10.25
2024-01-03T15:42:19.211Z,10.32
2024-01-03T15:44:46.775Z,10.23
2024-01-03T15:47:16.210Z,10.21
2024-01-03T15:49:43.771Z,10.21
2024-01-03T15:52:12.116Z,10.31
2024-01-03T15:54:46.576Z,10.32
2024-01-03T15:57:15.835Z,10.24
2024-01-03T15:59:44.718Z,10.15
2024-01-03T16:02:12.496Z,10.21
2024-01-03T16:04:43.237Z,10.18
2024-01-03T16:07:10.722Z,10.21
2024-01-03T16:09:39.049Z,10.24
2024-01-03T16:12:07.011Z,10.24
2024-01-03T16:14:34.936Z,10.14
2024-01-03T16:17:02.630Z,10.08
2024-01-03T16:19:30.446Z,10.01
2024-01-03T16:21:59.294Z,10.12
2024-01-03T16:24:26.736Z,10.03
2024-01-03T16:26:56.571Z,10.13
2024-01-03T16:29:25.741Z,10.10
2024-01-03T16:31:54.134Z,10.12
2024-01-03T16:34:26.426Z,10.05
2024-01-03T16:36:55.078Z,10.13
2024-01-03T16:39:24.133Z,10.18
2024-01-03T16:41:52.612Z,10.22
2024-01-03T16:44:21.073Z,10.18
2024-01-03T16:46:49.685Z,10.17
2024-01-03T16:49:19.716Z,10.16
2024-01-03T16:51:48.714Z,10.11
2024-01-03T16:54:17.196Z,10.11
2024-01-03T16:56:48.252Z,10.22
2024-01-03T16:59:19.286Z,10.14
2024-01-03T17:01:47.728Z,10.10
2024-01-03T17:04:18.110Z,10.13
2024-01-03T17:06:47.308Z,10.06
2024-01-03T17:09:17.052Z,10.02
2024-01-03T17:11:47.756Z,10.02
2024-01-03T17:14:16.991Z,9.88
2024-01-03T17:16:45.153Z,9.93
2024-01-03T17:19:13.077Z,9.99
2024-01-03T17:21:41.165Z,10.10
2024-01-03T17:24:08.784Z,10.02
2024-01-03T17:26:37.590Z,10.24
2024-01-03T17:29:07.711Z,10.08
2024-01-03T17:31:36.925Z,10.32
2024-01-03T17:34:05.886Z,9.85
2024-01-03T17:36:34.046Z,10.28
2024-01-03T17:39:01.662Z,9.81
2024-01-03T17:41:31.068Z,9.72
2024-01-03T17:43:59.895Z,10.16
2024-01-03T17:46:29.024Z,9.67
2024-01-03T17:48:56.893Z,9.66
2024-01-03T17:51:24.617Z,9.62
2024-01-03T17:53:55.591Z,9.70
2024-01-03T17:56:25.397Z,9.66
2024-01-03T17:58:53.875Z,9.71
2024-01-03T18:01:22.822Z,9.67
2024-01-03T18:03:52.278Z,9.69
2024-01-03T18:06:20.090Z,9.62
2024-01-03T18:08:47.766Z,9.65
2024-01-03T18:11:15.563Z,9.69
2024-01-03T18:13:43.118Z,9.69
2024-01-03T18:16:12.252Z,9.58
2024-01-03T18:18:39.989Z,9.55
2024-01-03T18:21:09.364Z,9.52
2024-01-03T18:23:38.388Z,9.53
2024-01-03T18:26:06.611Z,9.63
2024-01-03T18:28:34.449Z,9.49
2024-01-03T18:31:02.279Z,9.52
2024-01-03T18:33:30.097Z,9.48
2024-01-03T18:35:59.027Z,9.42
2024-01-03T18:38:31.805Z,9.53
2024-01-03T18:41:00.946Z,9.42
2024-01-03T18:43:28.933Z,9.41
2024-01-03T18:45:56.569Z,9.27
2024-01-03T18:48:24.317Z,9.28
2024-01-03T18:50:53.502Z,9.26
2024-01-03T18:53:25.787Z,9.25
2024-01-03T18:55:54.704Z,9.21
2024-01-03T18:58:23.623Z,9.14
2024-01-03T19:00:52.025Z,9.18
2024-01-03T19:03:19.698Z,9.18
2024-01-03T19:05:47.682Z,9.15
2024-01-03T19:08:15.314Z,9.11
2024-01-03T19:10:42.828Z,9.12
2024-01-03T19:13:14.155Z,9.28
2024-01-03T19:15:41.883Z,9.12
2024-01-03T19:18:10.151Z,9.11
2024-01-03T19:20:38.879Z,9.13
2024-01-03T19:23:06.452Z,9.13
2024-01-03T19:25:35.394Z,9.15
2024-01-03T19:28:02.929Z,9.16
2024-01-03T19:30:32.384Z,9.10
2024-01-03T19:33:00.169Z,9.07
2024-01-03T19:35:27.802Z,9.09
2024-01-03T19:37:55.325Z,9.13
2024-01-03T19:40:23.265Z,9.13
2024-01-03T19:42:50.782Z,9.25
2024-01-03T19:45:19.213Z,9.30
2024-01-03T19:47:48.662Z,9.27
2024-01-03T19:50:16.636Z,9.28
2024-01-03T19:52:44.935Z,9.27
2024-01-03T19:55:12.463Z,9.31
2024-01-03T19:57:41.710Z,9.31
2024-01-03T20:00:10.784Z,9.31
2024-01-03T20:02:40.821Z,9.42
2024-01-03T20:05:11.132Z,9.46
2024-01-03T20:07:38.730Z,9.35
2024-01-03T20:10:09.379Z,9.35
2024-01-03T20:12:36.976Z,9.36
2024-01-03T20:15:06.764Z,9.39
2024-01-03T20:17:34.560Z,9.41
2024-01-03T20:20:02.337Z,9.48
2024-01-03T20:22:31.534Z,9.50
2024-01-03T20:25:00.528Z,9.51
2024-01-03T20:27:28.228Z,9.54
2024-01-03T20:29:55.829Z,9.64
2024-01-03T20:32:23.343Z,9.64
2024-01-03T20:34:50.933Z,9.69
2024-01-03T20:37:18.481Z,9.66
2024-01-03T20:39:47.289Z,9.66
2024-01-03T20:42:14.918Z,9.56
2024-01-03T20:44:42.598Z,9.56
2024-01-03T20:47:10.168Z,9.58
2024-01-03T20:49:37.995Z,9.58
2024-01-03T20:52:08.806Z,9.58
2024-01-03T20:54:37.940Z,9.59
2024-01-03T20:57:07.165Z,9.67
2024-01-03T20:59:36.464Z,9.63
2024-01-03T21:02:04.678Z,9.58
2024-01-03T21:04:32.785Z,9.59
2024-01-03T21:07:00.362Z,9.56
2024-01-03T21:09:28.035Z,9.63
2024-01-03T21:11:56.117Z,9.58
2024-01-03T21:14:25.537Z,9.69
2024-01-03T21:16:53.101Z,9.59
2024-01-03T21:19:20.835Z,9.61
2024-01-03T21:21:48.497Z,9.59
2024-01-03T21:24:16.072Z,9.59
2024-01-03T21:26:44.171Z,9.57
2024-01-03T21:29:28.716Z,9.57
2024-01-03T21:32:00.272Z,9.59
2024-01-03T21:34:28.146Z,9.60
2024-01-03T21:36:55.835Z,9.48
2024-01-03T21:39:23.423Z,9.53
2024-01-03T21:41:51.107Z,9.48
2024-01-03T21:44:18.689Z,9.45
2024-01-03T21:46:46.305Z,9.47
2024-01-03T21:49:16.657Z,9.51
2024-01-03T21:51:44.432Z,9.49
2024-01-03T21:54:12.141Z,9.50
2024-01-03T21:56:40.066Z,9.43
2024-01-03T21:59:07.964Z,9.36
2024-01-03T22:01:36.115Z,9.29
2024-01-03T22:04:03.885Z,9.30
2024-01-03T22:06:32.960Z,9.33
2024-01-03T22:09:02.297Z,9.29
2024-01-03T22:11:30.058Z,9.21
2024-01-03T22:13:57.604Z,9.16
2024-01-03T22:16:25.173Z,9.21
2024-01-03T22:18:53.364Z,9.22
2024-01-03T22:21:20.977Z,9.17
2024-01-03T22:23:54.434Z,9.19
2024-01-03T22:26:22.255Z,9.12
2024-01-03T22:28:49.848Z,9.06
2024-01-03T22:31:17.588Z,9.09
2024-01-03T22:33:45.303Z,9.08
2024-01-03T22:36:15.479Z,9.13
2024-01-03T22:38:43.100Z,9.20
2024-01-03T22:41:12.061Z,9.20
2024-01-03T22:43:39.742Z,9.13
2024-01-03T22:46:07.496Z,9.05
2024-01-03T22:48:35.126Z,9.07
2024-01-03T22:51:02.842Z,9.14
2024-01-03T22:53:30.510Z,9.07
2024-01-03T22:55:58.118Z,9.04
2024-01-03T22:58:27.116Z,9.07
2024-01-03T23:00:54.704Z,9.06
2024-01-03T23:03:22.315Z,9.05
2024-01-03T23:05:50.171Z,8.97
2024-01-03T23:08:17.954Z,8.98
2024-01-03T23:10:45.541Z,8.97
2024-01-03T23:13:13.214Z,8.93
2024-01-03T23:15:42.093Z,9.02
2024-01-03T23:18:09.865Z,8.99
2024-01-03T23:20:37.788Z,8.96
2024-01-03T23:23:10.238Z,8.98
2024-01-03T23:25:38.797Z,8.97
2024-01-03T23:28:06.579Z,9.00
2024-01-03T23:30:34.160Z,9.01
2024-01-03T23:33:03.408Z,8.97
2024-01-03T23:35:31.182Z,8.92
2024-01-03T23:37:59.220Z,8.97
2024-01-03T23:40:27.217Z,9.01
2024-01-03T23:42:55.030Z,9.08
2024-01-03T23:45:26.995Z,9.06
2024-01-03T23:47:54.856Z,9.07
2024-01-03T23:50:23.820Z,9.11
2024-01-03T23:52:51.350Z,9.08
2024-01-03T23:55:18.954Z,9.10
2024-01-03T23:57:46.504Z,9.05
